McConnell AFB, Kansas
Current Conditions -  °F | °C
As of 12:54 PM on Sunday 23 Nov 2014 (Local Time) from KWLD Reporting Station
Overcast Overcast  
Wind Chill: 59°   Ceiling: 5000
Heat Index: 59°   Visibility: 10mi
Dew Point: 50°   Wind: 12mph
Humidity: 72%   Direction: 330°NNW
Pressure: 29.36"   Gusts: NA
Location:  37.38°N, 97.15°W
Report Text: KWLD 231854Z AUTO 33010KT 10SM OVC050 15/10 A2936 RMK AO2 SLP938 T01500100
Loading
Personal Weather Stations






























Interactive Weather Map New forecast layout! Learn more

10-Day Weather Forecast

Advertisements
Track Severe Weather on mobile